createdAt,value
2019-02-16T00:00:38.343Z,16.33
2019-02-16T00:03:08.168Z,15.53
2019-02-16T00:05:37.528Z,16.20
2019-02-16T00:08:07.079Z,15.90
2019-02-16T00:10:36.524Z,17.03
2019-02-16T00:13:06.078Z,16.50
2019-02-16T00:15:35.511Z,17.60
2019-02-16T00:18:05.054Z,17.03
2019-02-16T00:20:34.487Z,16.83
2019-02-16T00:23:04.094Z,16.83
2019-02-16T00:25:33.465Z,17.20
2019-02-16T00:28:03.322Z,16.30
2019-02-16T00:30:32.763Z,15.90
2019-02-16T00:33:02.298Z,15.77
2019-02-16T00:35:31.806Z,15.70
2019-02-16T00:38:02.750Z,15.23
2019-02-16T00:40:32.273Z,15.10
2019-02-16T00:43:01.812Z,13.90
2019-02-16T00:45:31.241Z,14.73
2019-02-16T00:48:00.653Z,14.53
2019-02-16T00:50:30.116Z,13.57
2019-02-16T00:52:59.592Z,13.90
2019-02-16T00:55:28.951Z,12.83
2019-02-16T00:57:58.620Z,14.27
2019-02-16T01:00:28.120Z,13.30
2019-02-16T01:02:57.521Z,13.87
2019-02-16T01:05:26.954Z,12.97
2019-02-16T01:07:56.440Z,13.83
2019-02-16T01:10:25.807Z,13.40
2019-02-16T01:12:55.348Z,12.77
2019-02-16T01:15:24.865Z,13.53
2019-02-16T01:17:54.300Z,13.37
2019-02-16T01:20:23.728Z,13.30
2019-02-16T01:22:53.195Z,12.97
2019-02-16T01:25:22.655Z,12.00
2019-02-16T01:27:53.547Z,12.50
2019-02-16T01:30:22.994Z,13.10
2019-02-16T01:32:52.435Z,12.73
2019-02-16T01:35:21.928Z,12.37
2019-02-16T01:37:51.627Z,13.03
2019-02-16T01:40:21.193Z,12.00
2019-02-16T01:42:50.696Z,12.57
2019-02-16T01:45:20.233Z,11.93
2019-02-16T01:47:49.637Z,11.50
2019-02-16T01:50:19.123Z,12.00
2019-02-16T01:52:48.578Z,11.87
2019-02-16T01:55:18.065Z,12.10
2019-02-16T01:57:47.572Z,11.70
2019-02-16T02:00:17.166Z,12.30
2019-02-16T02:02:48.159Z,11.70
2019-02-16T02:05:17.777Z,11.37
2019-02-16T02:07:47.229Z,12.73
2019-02-16T02:10:16.938Z,11.47
2019-02-16T02:12:46.506Z,10.83
2019-02-16T02:15:16.079Z,11.87
2019-02-16T02:17:45.602Z,11.60
2019-02-16T02:20:15.173Z,11.70
2019-02-16T02:22:44.752Z,11.27
2019-02-16T02:25:14.325Z,11.90
2019-02-16T02:27:43.896Z,12.30
2019-02-16T02:30:13.613Z,12.07
2019-02-16T02:32:43.894Z,11.53
2019-02-16T02:35:13.532Z,12.07
2019-02-16T02:37:43.028Z,12.00
2019-02-16T02:40:12.538Z,11.43
2019-02-16T02:42:42.107Z,12.20
2019-02-16T02:45:11.677Z,12.17
2019-02-16T02:47:41.278Z,12.20
2019-02-16T02:50:10.845Z,11.80
2019-02-16T02:52:40.420Z,11.33
2019-02-16T02:55:10.708Z,12.63
2019-02-16T02:57:40.221Z,12.50
2019-02-16T03:00:10.459Z,12.03
2019-02-16T03:02:39.950Z,12.43
2019-02-16T03:05:10.692Z,12.30
2019-02-16T03:07:40.195Z,12.90
2019-02-16T03:10:09.823Z,11.90
2019-02-16T03:12:39.315Z,11.83
2019-02-16T03:15:09.020Z,11.77
2019-02-16T03:17:38.561Z,11.40
2019-02-16T03:20:08.220Z,12.67
2019-02-16T03:23:12.032Z,12.50
2019-02-16T03:25:44.369Z,11.97
2019-02-16T03:28:29.044Z,12.40
2019-02-16T03:31:22.449Z,12.43
2019-02-16T03:33:55.037Z,12.47
2019-02-16T03:36:56.221Z,11.67
2019-02-16T03:39:25.839Z,11.73
2019-02-16T03:41:55.464Z,11.90
2019-02-16T03:44:24.964Z,12.23
2019-02-16T03:46:54.559Z,11.93
2019-02-16T03:49:24.041Z,11.93
2019-02-16T03:51:53.604Z,12.00
2019-02-16T03:54:23.247Z,12.23
2019-02-16T03:56:52.823Z,11.67
2019-02-16T03:59:22.332Z,11.57
2019-02-16T04:01:51.889Z,11.73
2019-02-16T04:04:21.532Z,11.73
2019-02-16T04:06:50.961Z,11.83
2019-02-16T04:09:20.511Z,13.00
2019-02-16T04:11:50.008Z,11.57
2019-02-16T04:14:19.520Z,11.97
2019-02-16T04:16:49.028Z,12.17
2019-02-16T04:19:18.500Z,11.60
2019-02-16T04:21:48.264Z,11.80
2019-02-16T04:24:17.778Z,11.53
2019-02-16T04:26:47.244Z,11.63
2019-02-16T04:29:16.786Z,12.43
2019-02-16T04:31:46.242Z,12.20
2019-02-16T04:34:15.632Z,11.97
2019-02-16T04:36:45.017Z,12.53
2019-02-16T04:39:14.593Z,12.37
2019-02-16T04:41:44.303Z,12.40
2019-02-16T04:44:13.691Z,12.43
2019-02-16T04:46:43.097Z,12.90
2019-02-16T04:49:12.600Z,12.57
2019-02-16T04:51:42.030Z,12.10
2019-02-16T04:54:11.495Z,12.97
2019-02-16T04:56:40.862Z,12.23
2019-02-16T04:59:10.334Z,12.27
2019-02-16T05:01:39.763Z,11.83
2019-02-16T05:04:09.255Z,12.47
2019-02-16T05:06:38.631Z,11.97
2019-02-16T05:09:08.758Z,12.07
2019-02-16T05:11:38.292Z,12.87
2019-02-16T05:14:07.702Z,11.73
2019-02-16T05:16:37.340Z,11.87
2019-02-16T05:19:06.835Z,11.97
2019-02-16T05:21:36.339Z,12.40
2019-02-16T05:24:05.808Z,13.07
2019-02-16T05:26:35.248Z,12.53
2019-02-16T05:29:04.722Z,12.40
2019-02-16T05:31:34.093Z,12.87
2019-02-16T05:34:03.559Z,12.83
2019-02-16T05:36:33.007Z,12.30
2019-02-16T05:39:02.394Z,12.33
2019-02-16T05:41:31.783Z,12.60
2019-02-16T05:44:01.340Z,13.00
2019-02-16T05:46:30.712Z,12.70
2019-02-16T05:49:00.112Z,12.73
2019-02-16T05:51:29.474Z,13.03
2019-02-16T05:53:58.906Z,12.87
2019-02-16T05:56:28.274Z,12.63
2019-02-16T05:58:58.327Z,12.80
2019-02-16T06:01:27.766Z,11.93
2019-02-16T06:03:57.174Z,12.67
2019-02-16T06:06:26.700Z,12.97
2019-02-16T06:08:57.643Z,12.53
2019-02-16T06:11:27.078Z,13.07
2019-02-16T06:13:57.395Z,12.17
2019-02-16T06:16:26.842Z,12.90
2019-02-16T06:18:56.310Z,13.57
2019-02-16T06:21:25.724Z,12.73
2019-02-16T06:23:55.169Z,13.17
2019-02-16T06:26:24.574Z,13.00
2019-02-16T06:28:54.000Z,13.27
2019-02-16T06:31:23.569Z,13.53
2019-02-16T06:33:53.594Z,13.47
2019-02-16T06:36:24.764Z,12.97
2019-02-16T06:38:54.175Z,13.20
2019-02-16T06:41:23.633Z,13.47
2019-02-16T06:43:53.036Z,14.30
2019-02-16T06:46:22.580Z,14.53
2019-02-16T06:48:52.016Z,14.00
2019-02-16T06:51:21.521Z,14.13
2019-02-16T06:53:50.932Z,14.70
2019-02-16T06:56:22.607Z,14.20
2019-02-16T06:58:52.000Z,13.93
2019-02-16T07:01:21.540Z,13.47
2019-02-16T07:03:50.999Z,14.57
2019-02-16T07:06:20.465Z,15.10
2019-02-16T07:08:50.446Z,15.07
2019-02-16T07:11:19.851Z,14.30
2019-02-16T07:13:49.255Z,14.13
2019-02-16T07:16:23.293Z,14.77
2019-02-16T07:18:54.343Z,14.57
2019-02-16T07:21:23.803Z,15.47
2019-02-16T07:23:53.279Z,15.13
2019-02-16T07:26:22.676Z,15.37
2019-02-16T07:28:52.244Z,15.47
2019-02-16T07:31:22.010Z,15.83
2019-02-16T07:33:51.473Z,15.73
2019-02-16T07:36:22.205Z,15.20
2019-02-16T07:38:51.911Z,16.20
2019-02-16T07:41:21.387Z,15.63
2019-02-16T07:43:52.875Z,15.97
2019-02-16T07:46:38.988Z,15.53
2019-02-16T07:49:23.235Z,15.67
2019-02-16T07:51:57.556Z,16.57
2019-02-16T07:54:29.175Z,16.33
2019-02-16T07:57:00.422Z,16.30
2019-02-16T07:59:37.472Z,16.17
2019-02-16T08:02:20.646Z,15.83
2019-02-16T08:04:51.811Z,16.53
2019-02-16T08:07:37.879Z,16.73
2019-02-16T08:10:15.256Z,17.13
2019-02-16T08:12:50.635Z,17.40
2019-02-16T08:15:38.145Z,17.53
2019-02-16T08:18:09.220Z,16.47
2019-02-16T08:20:49.222Z,17.47
2019-02-16T08:23:20.315Z,16.63
2019-02-16T08:25:57.376Z,16.97
2019-02-16T08:28:28.479Z,16.97
2019-02-16T08:31:14.395Z,17.43
2019-02-16T08:33:47.022Z,16.97
2019-02-16T08:36:24.132Z,18.17
2019-02-16T08:38:55.140Z,17.47
2019-02-16T08:41:35.219Z,18.60
2019-02-16T08:44:06.239Z,17.37
2019-02-16T08:46:37.419Z,17.30
2019-02-16T08:49:08.500Z,18.10
2019-02-16T08:51:48.371Z,18.00
2019-02-16T08:54:22.083Z,19.00
2019-02-16T08:56:53.391Z,18.70
2019-02-16T08:59:24.416Z,19.10
2019-02-16T09:02:07.579Z,19.30
2019-02-16T09:04:50.879Z,19.40
2019-02-16T09:07:38.447Z,19.00
2019-02-16T09:10:09.978Z,19.40
2019-02-16T09:12:42.512Z,19.50
2019-02-16T09:15:13.668Z,20.97
2019-02-16T09:17:47.674Z,21.33
2019-02-16T09:20:21.461Z,22.30
2019-02-16T09:23:09.123Z,21.13
2019-02-16T09:25:56.468Z,21.53
2019-02-16T09:28:30.455Z,21.83
2019-02-16T09:31:17.253Z,22.73
2019-02-16T09:33:50.963Z,22.47
2019-02-16T09:36:27.970Z,23.03
2019-02-16T09:39:08.320Z,23.67
2019-02-16T09:41:43.739Z,23.87
2019-02-16T09:44:32.868Z,23.23
2019-02-16T09:47:18.971Z,24.67
2019-02-16T09:49:52.618Z,23.83
2019-02-16T09:52:40.435Z,25.47
2019-02-16T09:55:14.297Z,24.00
2019-02-16T09:57:57.412Z,25.30
2019-02-16T10:00:34.309Z,24.63
2019-02-16T10:03:21.714Z,26.00
2019-02-16T10:06:04.412Z,26.00
2019-02-16T10:08:35.663Z,23.57
2019-02-16T10:11:23.185Z,25.07
2019-02-16T10:14:06.243Z,24.83
2019-02-16T10:16:40.366Z,24.17
2019-02-16T10:19:14.508Z,25.60
2019-02-16T10:21:46.545Z,25.23
2019-02-16T10:24:20.785Z,25.67
2019-02-16T10:27:06.970Z,25.23
2019-02-16T10:29:41.666Z,24.67
2019-02-16T10:32:12.763Z,25.27
2019-02-16T10:34:43.824Z,25.90
2019-02-16T10:37:14.919Z,25.43
2019-02-16T10:39:46.123Z,24.97
2019-02-16T10:42:23.157Z,25.93
2019-02-16T10:45:00.327Z,25.53
2019-02-16T10:47:31.515Z,25.93
2019-02-16T10:50:18.628Z,25.90
2019-02-16T10:52:53.963Z,25.20
2019-02-16T10:55:31.017Z,24.87
2019-02-16T10:58:04.884Z,24.87
2019-02-16T11:00:52.560Z,24.50
2019-02-16T11:03:26.668Z,23.97
2019-02-16T11:05:57.713Z,24.23
2019-02-16T11:08:28.807Z,24.90
2019-02-16T11:11:02.635Z,24.00
2019-02-16T11:13:33.643Z,24.77
2019-02-16T11:16:04.943Z,24.57
2019-02-16T11:18:36.069Z,23.27
2019-02-16T11:21:07.264Z,25.63
2019-02-16T11:23:41.633Z,25.63
2019-02-16T11:26:12.831Z,25.70
2019-02-16T11:28:46.661Z,25.53
2019-02-16T11:31:20.707Z,25.43
2019-02-16T11:34:08.579Z,24.90
2019-02-16T11:36:42.624Z,24.80
2019-02-16T11:39:13.759Z,25.93
2019-02-16T11:41:47.921Z,25.13
2019-02-16T11:44:19.057Z,24.70
2019-02-16T11:46:50.277Z,25.30
2019-02-16T11:49:21.391Z,25.53
2019-02-16T11:52:04.369Z,26.23
2019-02-16T11:54:45.421Z,24.10
2019-02-16T11:57:36.614Z,25.03
2019-02-16T12:00:22.801Z,24.47
2019-02-16T12:02:56.903Z,24.87
2019-02-16T12:05:27.964Z,26.07
2019-02-16T12:08:00.680Z,24.83
2019-02-16T12:10:37.989Z,26.77
2019-02-16T12:13:09.218Z,24.83
2019-02-16T12:15:43.036Z,24.83
2019-02-16T12:18:17.097Z,24.47
2019-02-16T12:20:48.203Z,23.67
2019-02-16T12:23:20.459Z,22.90
2019-02-16T12:25:51.486Z,23.03
2019-02-16T12:28:22.619Z,23.27
2019-02-16T12:30:53.718Z,22.20
2019-02-16T12:33:41.401Z,22.90
2019-02-16T12:36:28.930Z,21.77
2019-02-16T12:39:04.754Z,21.97
2019-02-16T12:41:35.721Z,21.80
2019-02-16T12:44:15.970Z,21.63
2019-02-16T12:46:47.047Z,21.33
2019-02-16T12:49:18.166Z,22.63
2019-02-16T12:52:01.185Z,21.33
2019-02-16T12:54:47.593Z,22.57
2019-02-16T12:57:21.774Z,23.33
2019-02-16T13:00:05.331Z,23.03
2019-02-16T13:02:52.842Z,23.17
2019-02-16T13:05:23.982Z,23.83
2019-02-16T13:07:57.770Z,24.00
2019-02-16T13:10:28.996Z,23.37
2019-02-16T13:13:09.091Z,23.57
2019-02-16T13:15:41.812Z,22.13
2019-02-16T13:18:15.731Z,21.57
2019-02-16T13:20:49.507Z,21.47
2019-02-16T13:23:35.903Z,21.67
2019-02-16T13:26:16.192Z,22.03
2019-02-16T13:28:47.209Z,21.23
2019-02-16T13:31:21.331Z,22.13
2019-02-16T13:33:55.296Z,22.50
2019-02-16T13:36:29.679Z,22.07
2019-02-16T13:39:03.531Z,21.47
2019-02-16T13:41:37.341Z,22.23
2019-02-16T13:44:08.427Z,22.77
2019-02-16T13:46:42.562Z,23.47
2019-02-16T13:49:13.715Z,23.03
2019-02-16T13:51:44.835Z,22.53
2019-02-16T13:54:31.106Z,23.03
2019-02-16T13:57:11.375Z,22.73
2019-02-16T13:59:42.472Z,23.90
2019-02-16T14:02:13.602Z,23.50
2019-02-16T14:04:53.659Z,22.83
2019-02-16T14:07:27.663Z,23.40
2019-02-16T14:09:58.822Z,24.40
2019-02-16T14:12:32.612Z,23.50
2019-02-16T14:15:03.759Z,24.33
2019-02-16T14:17:41.042Z,24.93
2019-02-16T14:20:10.522Z,24.13
2019-02-16T14:22:39.999Z,24.30
2019-02-16T14:25:11.244Z,25.13
2019-02-16T14:27:40.687Z,26.07
2019-02-16T14:30:13.572Z,26.13
2019-02-16T14:32:43.088Z,26.60
2019-02-16T14:35:12.515Z,26.03
2019-02-16T14:37:43.557Z,26.53
2019-02-16T14:40:13.151Z,26.37
2019-02-16T14:42:42.603Z,26.53
2019-02-16T14:45:15.213Z,26.27
2019-02-16T14:47:44.756Z,27.53
2019-02-16T14:50:14.355Z,27.23
2019-02-16T14:52:43.763Z,28.17
2019-02-16T14:55:15.891Z,28.77
2019-02-16T14:57:45.375Z,28.07
2019-02-16T15:00:14.991Z,28.70
2019-02-16T15:02:44.395Z,29.17
2019-02-16T15:05:13.811Z,28.37
2019-02-16T15:07:44.459Z,28.77
2019-02-16T15:10:14.803Z,27.93
2019-02-16T15:12:44.624Z,29.60
2019-02-16T15:15:14.198Z,29.03
2019-02-16T15:17:43.751Z,29.97
2019-02-16T15:20:17.174Z,31.03
2019-02-16T15:22:46.569Z,31.97
2019-02-16T15:25:16.050Z,31.03
2019-02-16T15:27:45.480Z,31.30
2019-02-16T15:30:17.668Z,34.13
2019-02-16T15:32:47.673Z,33.73
2019-02-16T15:35:17.287Z,32.97
2019-02-16T15:37:46.751Z,32.47
2019-02-16T15:40:16.229Z,33.30
2019-02-16T15:42:45.724Z,33.53
2019-02-16T15:45:15.712Z,33.60
2019-02-16T15:47:45.311Z,33.60
2019-02-16T15:50:15.461Z,32.40
2019-02-16T15:52:45.692Z,33.10
2019-02-16T15:55:16.533Z,32.27
2019-02-16T15:57:46.070Z,33.30
2019-02-16T16:00:24.055Z,34.60
2019-02-16T16:02:53.533Z,33.07
2019-02-16T16:05:23.075Z,32.53
2019-02-16T16:07:54.265Z,32.53
2019-02-16T16:10:28.323Z,32.40
2019-02-16T16:12:59.419Z,33.53
2019-02-16T16:15:42.278Z,33.40
2019-02-16T16:18:15.045Z,33.40
2019-02-16T16:20:52.168Z,34.67
2019-02-16T16:23:28.942Z,33.73
2019-02-16T16:26:00.055Z,34.33
2019-02-16T16:28:31.129Z,36.03
2019-02-16T16:31:02.176Z,34.90
2019-02-16T16:33:33.213Z,33.37
2019-02-16T16:36:04.272Z,35.60
2019-02-16T16:38:51.253Z,35.50
2019-02-16T16:41:31.757Z,36.80
2019-02-16T16:44:18.180Z,35.20
2019-02-16T16:46:49.304Z,37.27
2019-02-16T16:49:25.895Z,35.50
2019-02-16T16:52:12.063Z,36.00
2019-02-16T16:54:52.708Z,35.83
2019-02-16T16:57:26.556Z,35.43
2019-02-16T17:00:00.584Z,36.30
2019-02-16T17:02:40.258Z,36.17
2019-02-16T17:05:14.123Z,36.73
2019-02-16T17:08:01.289Z,35.77
2019-02-16T17:10:38.375Z,35.10
2019-02-16T17:13:09.519Z,36.30
2019-02-16T17:15:49.287Z,36.27
2019-02-16T17:18:29.465Z,36.53
2019-02-16T17:21:03.383Z,36.53
2019-02-16T17:23:37.652Z,36.00
2019-02-16T17:26:18.204Z,37.83
2019-02-16T17:29:05.665Z,36.97
2019-02-16T17:31:55.110Z,37.23
2019-02-16T17:34:44.430Z,36.37
2019-02-16T17:37:15.475Z,36.30
2019-02-16T17:39:58.452Z,37.90
2019-02-16T17:42:46.351Z,37.13
2019-02-16T17:45:20.175Z,36.93
2019-02-16T17:48:06.536Z,36.77
2019-02-16T17:50:37.629Z,37.30
2019-02-16T17:53:12.223Z,37.20
2019-02-16T17:55:43.481Z,38.43
2019-02-16T17:58:14.697Z,38.90
2019-02-16T18:00:48.753Z,39.67
2019-02-16T18:03:22.503Z,38.80
2019-02-16T18:05:59.620Z,40.10
2019-02-16T18:08:42.651Z,40.47
2019-02-16T18:11:13.704Z,39.53
2019-02-16T18:13:53.691Z,40.43
2019-02-16T18:16:27.865Z,41.00
2019-02-16T18:18:58.910Z,41.53
2019-02-16T18:21:32.831Z,44.00
2019-02-16T18:24:09.960Z,40.43
2019-02-16T18:26:41.105Z,42.50
2019-02-16T18:29:18.122Z,42.70
2019-02-16T18:31:52.002Z,42.77
2019-02-16T18:34:32.129Z,42.87
2019-02-16T18:37:03.355Z,42.93
2019-02-16T18:39:34.487Z,41.30
2019-02-16T18:42:05.666Z,44.30
2019-02-16T18:44:54.939Z,42.17
2019-02-16T18:47:32.076Z,42.97
2019-02-16T18:50:19.892Z,44.33
2019-02-16T18:53:07.449Z,41.93
2019-02-16T18:55:38.645Z,43.37
2019-02-16T18:58:12.257Z,44.07
2019-02-16T19:00:43.360Z,45.53
2019-02-16T19:03:23.477Z,44.30
2019-02-16T19:05:57.204Z,45.23
2019-02-16T19:08:37.374Z,44.70
2019-02-16T19:11:23.343Z,45.33
2019-02-16T19:14:09.613Z,44.63
2019-02-16T19:16:56.099Z,44.93
2019-02-16T19:19:28.846Z,45.00
2019-02-16T19:22:15.103Z,47.43
2019-02-16T19:24:46.208Z,46.50
2019-02-16T19:27:35.966Z,46.13
2019-02-16T19:30:09.756Z,45.67
2019-02-16T19:32:43.994Z,45.63
2019-02-16T19:35:15.138Z,47.30
2019-02-16T19:37:49.023Z,47.40
2019-02-16T19:40:31.729Z,46.93
2019-02-16T19:43:11.775Z,46.53
2019-02-16T19:45:59.024Z,47.53
2019-02-16T19:48:48.466Z,47.57
2019-02-16T19:51:19.509Z,48.80
2019-02-16T19:53:50.551Z,47.83
2019-02-16T19:56:24.574Z,47.90
2019-02-16T19:59:04.372Z,47.87
2019-02-16T20:01:35.467Z,49.83
2019-02-16T20:04:14.019Z,47.13
2019-02-16T20:06:48.052Z,48.90
2019-02-16T20:09:31.322Z,45.90
2019-02-16T20:12:02.420Z,47.80
2019-02-16T20:14:42.343Z,49.13
2019-02-16T20:17:16.305Z,48.83
2019-02-16T20:19:56.129Z,48.13
2019-02-16T20:22:30.454Z,47.50
2019-02-16T20:25:16.850Z,48.47
2019-02-16T20:27:53.800Z,48.53
2019-02-16T20:30:28.004Z,48.53
2019-02-16T20:33:14.473Z,50.53
2019-02-16T20:35:45.970Z,49.00
2019-02-16T20:38:19.231Z,49.60
2019-02-16T20:40:50.467Z,50.17
2019-02-16T20:43:21.486Z,47.70
2019-02-16T20:45:52.606Z,48.87
2019-02-16T20:48:26.471Z,50.17
2019-02-16T20:51:00.731Z,48.33
2019-02-16T20:53:34.764Z,49.00
2019-02-16T20:56:08.624Z,48.90
2019-02-16T20:58:48.537Z,48.97
2019-02-16T21:01:19.656Z,49.47
2019-02-16T21:03:54.250Z,49.60
2019-02-16T21:06:43.540Z,51.40
2019-02-16T21:09:17.450Z,48.53
2019-02-16T21:14:46.110Z,50.73
2019-02-16T21:17:33.485Z,50.37
2019-02-16T21:20:21.288Z,50.03
2019-02-16T21:22:56.154Z,50.40
2019-02-16T21:25:28.133Z,50.97
2019-02-16T21:27:59.210Z,52.83
2019-02-16T21:30:47.031Z,51.03
2019-02-16T21:33:21.000Z,51.10
2019-02-16T21:35:52.057Z,52.00
2019-02-16T21:38:25.880Z,51.07
2019-02-16T21:41:01.429Z,51.37
2019-02-16T21:43:35.524Z,51.73
2019-02-16T21:46:12.396Z,51.50
2019-02-16T21:48:43.479Z,50.37
2019-02-16T21:51:23.703Z,51.63
2019-02-16T21:54:00.271Z,51.93
2019-02-16T21:56:37.040Z,51.53
2019-02-16T21:59:24.339Z,52.87
2019-02-16T22:02:12.037Z,50.37
2019-02-16T22:04:43.117Z,53.27
2019-02-16T22:07:20.087Z,53.30
2019-02-16T22:09:57.001Z,52.67
2019-02-16T22:12:44.322Z,53.07
2019-02-16T22:15:13.729Z,52.23
2019-02-16T22:17:43.232Z,53.27
2019-02-16T22:20:12.767Z,52.67
2019-02-16T22:22:42.170Z,52.63
2019-02-16T22:25:11.667Z,52.77
2019-02-16T22:27:42.887Z,51.90
2019-02-16T22:30:12.318Z,52.97
2019-02-16T22:32:41.812Z,53.23
2019-02-16T22:35:11.324Z,54.63
2019-02-16T22:37:40.808Z,53.90
2019-02-16T22:40:10.407Z,52.80
2019-02-16T22:42:39.920Z,54.47
2019-02-16T22:45:11.401Z,55.77
2019-02-16T22:47:40.796Z,55.37
2019-02-16T22:50:10.905Z,54.67
2019-02-16T22:52:40.379Z,56.23
2019-02-16T22:55:10.320Z,55.13
2019-02-16T22:57:39.764Z,55.93
2019-02-16T23:00:16.731Z,55.03
2019-02-16T23:02:46.128Z,56.83
2019-02-16T23:05:15.589Z,56.23
2019-02-16T23:07:45.068Z,57.03
2019-02-16T23:10:14.707Z,57.40
2019-02-16T23:12:44.109Z,58.10
2019-02-16T23:15:14.018Z,56.87
2019-02-16T23:17:43.565Z,56.53
2019-02-16T23:20:13.138Z,57.10
2019-02-16T23:22:42.531Z,57.63
2019-02-16T23:25:12.058Z,57.63
2019-02-16T23:27:41.567Z,57.03
2019-02-16T23:30:12.119Z,59.87
2019-02-16T23:32:41.575Z,59.27
2019-02-16T23:35:11.326Z,57.30
2019-02-16T23:37:40.695Z,60.23
2019-02-16T23:40:10.323Z,59.53
2019-02-16T23:42:39.690Z,60.40
2019-02-16T23:45:10.823Z,58.83
2019-02-16T23:47:40.576Z,60.60
2019-02-16T23:50:11.224Z,61.67
2019-02-16T23:52:40.599Z,63.20
2019-02-16T23:55:10.971Z,60.07
2019-02-16T23:57:40.417Z,63.87
